Time;durP1;ratioP1;P1;durP2;ratioP2;P2;SDS_P1;SDS_P2;PMS_P1;PMS_P2;Temp;Humidity;BMP_temperature;BMP_pressure;BME280_temperature;BME280_humidity;BME280_pressure;Samples;Min_cycle;Max_cycle;Signal;HPM_P1;HPM_P2
2022/01/24 00:01:44;;;;;;;3.35;3.00;;;17.60;55.70;;;;;;5054139;28;20265;-60
2022/01/24 00:04:10;;;;;;;3.75;3.05;;;17.60;55.80;;;;;;5054348;28;20175;-59
2022/01/24 00:06:35;;;;;;;3.92;2.78;;;17.60;55.70;;;;;;5053221;28;20186;-59
2022/01/24 00:09:01;;;;;;;3.35;2.65;;;17.60;55.70;;;;;;5054303;28;20183;-60
2022/01/24 00:11:39;;;;;;;4.07;2.72;;;17.60;55.70;;;;;;5053877;28;20175;-60
2022/01/24 00:14:46;;;;;;;3.92;3.28;;;17.50;55.70;;;;;;5053511;28;20179;-60
2022/01/24 00:17:17;;;;;;;4.32;2.75;;;17.50;55.70;;;;;;5053916;28;20178;-61
2022/01/24 00:27:54;;;;;;;3.42;3.15;;;17.50;55.70;;;;;;5053011;28;20174;-60
2022/01/24 00:30:20;;;;;;;3.25;2.95;;;17.50;55.70;;;;;;5053388;28;20266;-60
2022/01/24 00:32:45;;;;;;;3.55;3.10;;;17.50;55.70;;;;;;5053505;28;20236;-60
2022/01/24 00:35:11;;;;;;;4.05;3.38;;;17.50;55.70;;;;;;5053090;28;20650;-59
2022/01/24 00:37:37;;;;;;;3.60;3.30;;;17.40;55.60;;;;;;5053308;28;20171;-60
2022/01/24 00:40:03;;;;;;;4.20;2.80;;;17.40;55.60;;;;;;5053360;28;20186;-60
2022/01/24 00:42:39;;;;;;;4.25;3.08;;;17.40;55.60;;;;;;5052870;28;20175;-60
2022/01/24 00:45:14;;;;;;;3.30;3.00;;;17.40;55.60;;;;;;5053537;28;20171;-60
2022/01/24 00:47:50;;;;;;;3.25;2.95;;;17.40;55.60;;;;;;5053348;28;20209;-60
2022/01/24 00:55:47;;;;;;;3.58;3.28;;;17.40;55.60;;;;;;5052297;28;20182;-60
2022/01/24 00:58:13;;;;;;;3.60;3.30;;;17.40;55.60;;;;;;5053158;28;20649;-61
2022/01/24 01:00:39;;;;;;;4.22;3.53;;;17.40;55.60;;;;;;5052794;28;20218;-59
2022/01/24 01:03:04;;;;;;;4.00;3.60;;;17.40;55.60;;;;;;5052491;28;20586;-60
2022/01/24 01:05:45;;;;;;;3.85;3.55;;;17.30;55.60;;;;;;5052720;28;20333;-59
2022/01/24 01:18:49;;;;;;;3.53;3.13;;;17.30;55.60;;;;;;5051779;28;20229;-60
2022/01/24 01:21:15;;;;;;;3.88;3.42;;;17.30;55.60;;;;;;5052557;28;20662;-60
2022/01/24 01:23:45;;;;;;;4.78;4.28;;;17.30;55.60;;;;;;5051362;28;20171;-60
2022/01/24 01:26:22;;;;;;;3.70;3.40;;;17.30;55.60;;;;;;5052423;28;20175;-60
2022/01/24 01:28:51;;;;;;;5.10;3.67;;;17.20;55.50;;;;;;5052737;28;20618;-60
2022/01/24 01:31:37;;;;;;;4.72;3.47;;;17.30;55.60;;;;;;5051269;28;20638;-59
2022/01/24 01:37:19;;;;;;;3.70;3.40;;;17.30;55.60;;;;;;5052224;28;20182;-59
2022/01/24 01:56:02;;;;;;;4.18;3.78;;;17.20;55.50;;;;;;5052219;28;20174;-60
2022/01/24 01:58:29;;;;;;;4.00;3.70;;;17.20;55.50;;;;;;5051704;28;20167;-60
2022/01/24 02:00:57;;;;;;;4.60;3.90;;;17.10;55.50;;;;;;5051153;28;20297;-60
2022/01/24 02:03:23;;;;;;;4.10;3.80;;;17.20;55.50;;;;;;5051697;28;20175;-59
2022/01/24 02:05:48;;;;;;;4.68;4.28;;;17.20;55.50;;;;;;5051335;28;20329;-58
2022/01/24 02:08:15;;;;;;;4.05;3.70;;;17.10;55.50;;;;;;5051559;28;20179;-59
2022/01/24 02:10:42;;;;;;;4.90;4.35;;;17.10;55.50;;;;;;5051386;28;20660;-59
2022/01/24 02:13:08;;;;;;;4.72;3.60;;;17.10;55.50;;;;;;5051245;28;20205;-60
2022/01/24 02:18:25;;;;;;;4.25;3.90;;;17.10;55.50;;;;;;5051845;28;20187;-60
2022/01/24 02:23:58;;;;;;;4.45;4.10;;;17.10;55.50;;;;;;5009810;28;20179;-59
2022/01/24 02:26:24;;;;;;;4.28;3.97;;;17.10;55.50;;;;;;5009401;28;20188;-60
2022/01/24 02:29:03;;;;;;;4.15;3.75;;;17.10;55.50;;;;;;5029352;28;20194;-60
2022/01/24 02:31:42;;;;;;;4.32;3.92;;;17.10;55.50;;;;;;5051014;28;20695;-59
2022/01/24 02:34:24;;;;;;;4.22;3.88;;;17.00;55.50;;;;;;5050882;28;20248;-59
2022/01/24 02:36:50;;;;;;;4.60;4.20;;;17.00;55.50;;;;;;5051626;28;20175;-60
2022/01/24 02:39:43;;;;;;;4.20;3.80;;;17.00;55.50;;;;;;5051340;28;20614;-59
2022/01/24 02:50:36;;;;;;;4.38;3.97;;;17.00;56.10;;;;;;5054192;28;20696;-60
2022/01/24 02:53:01;;;;;;;4.28;3.88;;;17.00;55.40;;;;;;5055231;28;20594;-60
2022/01/24 02:55:27;;;;;;;4.32;3.92;;;17.00;55.40;;;;;;5054215;28;20183;-60
2022/01/24 02:57:52;;;;;;;4.65;4.25;;;17.00;55.40;;;;;;5055364;28;20274;-60
2022/01/24 03:00:18;;;;;;;4.57;4.18;;;17.00;55.40;;;;;;5055013;28;20709;-59
2022/01/24 03:02:43;;;;;;;4.70;4.30;;;17.00;55.40;;;;;;5053857;28;20197;-60
2022/01/24 03:05:09;;;;;;;5.53;4.40;;;17.00;55.50;;;;;;5054895;28;20201;-60
2022/01/24 03:07:34;;;;;;;3.97;3.67;;;17.00;55.50;;;;;;5054500;28;20171;-59
2022/01/24 03:10:08;;;;;;;4.50;4.20;;;16.90;55.40;;;;;;5054176;28;20225;-60
2022/01/24 03:12:42;;;;;;;4.38;3.97;;;16.90;55.40;;;;;;5054712;28;20190;-60
2022/01/24 03:15:08;;;;;;;4.40;4.00;;;16.90;55.40;;;;;;5054732;28;20171;-61
2022/01/24 03:17:33;;;;;;;4.63;4.22;;;16.90;55.40;;;;;;5053801;28;20178;-60
2022/01/24 03:19:59;;;;;;;4.97;4.57;;;16.90;55.50;;;;;;5054683;28;20182;-61
2022/01/24 03:22:24;;;;;;;4.45;4.05;;;16.90;55.40;;;;;;5054237;28;20175;-60
2022/01/24 03:24:50;;;;;;;4.32;3.92;;;16.90;55.50;;;;;;5053892;28;20576;-60
2022/01/24 03:27:15;;;;;;;4.35;3.95;;;16.90;55.40;;;;;;5054464;28;20175;-60
2022/01/24 03:29:41;;;;;;;5.05;4.55;;;16.90;55.40;;;;;;5054064;28;20656;-59
2022/01/24 03:32:07;;;;;;;4.80;4.40;;;16.90;55.40;;;;;;5053903;28;20198;-60
2022/01/24 03:34:32;;;;;;;4.47;4.10;;;16.90;55.40;;;;;;5054163;28;20251;-59
2022/01/24 03:36:58;;;;;;;4.82;4.28;;;16.90;55.50;;;;;;5054403;28;20163;-60
2022/01/24 03:39:23;;;;;;;4.40;4.10;;;16.90;55.40;;;;;;5053468;28;20301;-60
2022/01/24 03:41:49;;;;;;;4.50;4.10;;;16.90;55.50;;;;;;5054068;28;20565;-60
2022/01/24 03:44:17;;;;;;;5.70;5.20;;;16.80;55.40;;;;;;5053977;28;20258;-60
2022/01/24 03:49:45;;;;;;;4.57;4.18;;;16.80;55.40;;;;;;5054109;28;20178;-60
2022/01/24 03:52:11;;;;;;;4.70;4.30;;;16.80;55.50;;;;;;5053101;28;20226;-60
2022/01/24 03:54:37;;;;;;;4.43;4.05;;;16.80;55.40;;;;;;5052970;28;20680;-61
2022/01/24 03:57:03;;;;;;;4.55;4.15;;;16.80;55.40;;;;;;5054160;28;20180;-60
2022/01/24 03:59:30;;;;;;;4.40;4.00;;;16.80;55.40;;;;;;5053168;28;20296;-60
2022/01/24 04:01:57;;;;;;;5.30;4.85;;;16.80;55.40;;;;;;5053904;28;20693;-61
2022/01/24 04:04:22;;;;;;;4.60;4.20;;;16.80;55.40;;;;;;5053706;28;20228;-60
2022/01/24 04:06:48;;;;;;;4.72;4.30;;;16.80;55.40;;;;;;5053113;28;20179;-60
2022/01/24 04:09:14;;;;;;;4.40;4.00;;;16.80;55.40;;;;;;5053602;28;20186;-60
2022/01/24 04:11:40;;;;;;;4.65;4.25;;;16.80;55.40;;;;;;5053771;28;20183;-60
2022/01/24 04:22:18;;;;;;;5.10;4.70;;;16.70;55.40;;;;;;5053768;28;20249;-60
2022/01/24 04:24:45;;;;;;;4.63;4.22;;;16.70;55.40;;;;;;5053330;28;20181;-61
2022/01/24 04:27:10;;;;;;;4.43;4.07;;;16.70;55.40;;;;;;5053182;28;20183;-59
2022/01/24 04:29:36;;;;;;;4.55;4.18;;;16.70;55.40;;;;;;5053207;28;20665;-60
2022/01/24 04:32:02;;;;;;;4.82;4.43;;;16.70;55.40;;;;;;5053235;28;20232;-60
2022/01/24 04:34:27;;;;;;;4.57;4.18;;;16.70;55.40;;;;;;5051022;28;20701;-60
2022/01/24 04:36:53;;;;;;;4.60;4.20;;;16.70;55.40;;;;;;5053398;28;20179;-61
2022/01/24 04:39:18;;;;;;;4.43;4.03;;;16.70;55.40;;;;;;5053280;28;20182;-60
2022/01/24 04:41:47;;;;;;;4.28;3.88;;;16.70;56.10;;;;;;5052090;28;20641;-60
2022/01/24 04:46:55;;;;;;;4.70;4.30;;;16.60;55.40;;;;;;5053342;28;20182;-60
2022/01/24 04:54:41;;;;;;;4.53;4.13;;;16.60;55.40;;;;;;5052185;28;20187;-60
2022/01/24 04:57:14;;;;;;;4.68;4.20;;;16.60;55.40;;;;;;5052934;28;20183;-60
2022/01/24 04:59:44;;;;;;;4.40;4.03;;;16.60;55.40;;;;;;5052901;28;20285;-60
2022/01/24 05:02:10;;;;;;;4.75;4.35;;;16.60;55.40;;;;;;5051053;28;20300;-60
2022/01/24 05:04:36;;;;;;;4.97;4.57;;;16.60;55.40;;;;;;5052487;28;20588;-60
2022/01/24 05:07:02;;;;;;;5.03;4.63;;;16.60;55.40;;;;;;5053025;28;20201;-60
2022/01/24 05:09:32;;;;;;;4.55;4.18;;;16.60;55.40;;;;;;5051755;28;20646;-60
2022/01/24 05:12:06;;;;;;;4.50;4.10;;;16.60;55.40;;;;;;5052740;28;20183;-60
2022/01/24 05:25:28;;;;;;;4.63;3.95;;;16.60;55.40;;;;;;5052217;28;20182;-60
2022/01/24 05:27:54;;;;;;;4.43;4.13;;;16.50;55.30;;;;;;5052343;28;20544;-60
2022/01/24 05:30:19;;;;;;;4.70;4.30;;;16.60;55.40;;;;;;5051444;28;20630;-60
2022/01/24 05:32:45;;;;;;;4.60;4.20;;;16.60;55.40;;;;;;5052572;28;20175;-60
2022/01/24 05:35:10;;;;;;;4.47;4.07;;;16.50;55.40;;;;;;5052552;28;20182;-59
2022/01/24 05:37:36;;;;;;;4.75;4.35;;;16.50;55.40;;;;;;5051267;28;20178;-59
2022/01/24 05:40:02;;;;;;;4.75;4.35;;;16.50;55.40;;;;;;5052418;28;20198;-60
2022/01/24 05:42:28;;;;;;;4.60;4.20;;;16.50;55.30;;;;;;5051771;28;20224;-60
2022/01/24 05:44:53;;;;;;;4.45;4.05;;;16.50;55.40;;;;;;5051438;28;20171;-59
2022/01/24 05:47:19;;;;;;;4.60;4.20;;;16.50;55.30;;;;;;5052404;28;20182;-59
2022/01/24 05:49:44;;;;;;;4.53;4.13;;;16.50;55.30;;;;;;5052229;28;20209;-60
2022/01/24 05:52:10;;;;;;;4.03;3.72;;;16.50;55.30;;;;;;5051342;28;20290;-59
2022/01/24 05:54:37;;;;;;;4.68;4.28;;;16.50;55.30;;;;;;5051962;28;20195;-60
2022/01/24 05:57:03;;;;;;;4.45;4.05;;;16.50;55.30;;;;;;5052225;28;20175;-61
2022/01/24 05:59:28;;;;;;;4.80;4.40;;;16.50;55.30;;;;;;5051087;28;20171;-59
2022/01/24 06:01:54;;;;;;;4.47;4.07;;;16.50;55.30;;;;;;5051681;28;20259;-59
2022/01/24 06:04:19;;;;;;;3.97;3.60;;;16.50;55.30;;;;;;5051911;28;20477;-58
2022/01/24 06:06:45;;;;;;;4.30;3.65;;;16.40;55.30;;;;;;5051296;28;20183;-58
2022/01/24 06:09:10;;;;;;;4.47;4.07;;;16.40;55.30;;;;;;5052010;28;20259;-58
2022/01/24 06:11:36;;;;;;;4.53;4.22;;;16.40;55.20;;;;;;5051565;28;20236;-59
2022/01/24 06:14:03;;;;;;;4.72;4.32;;;16.40;55.20;;;;;;5051191;28;20587;-60
2022/01/24 06:16:29;;;;;;;4.32;3.95;;;16.40;55.20;;;;;;5050911;28;20198;-59
2022/01/24 06:18:54;;;;;;;3.47;3.28;;;16.40;55.30;;;;;;5051689;28;20167;-59
2022/01/24 06:21:20;;;;;;;4.15;3.85;;;16.40;55.90;;;;;;5050696;28;20546;-58
2022/01/24 06:23:45;;;;;;;4.72;4.43;;;16.40;55.20;;;;;;5051714;28;20214;-58
2022/01/24 06:26:11;;;;;;;4.63;4.22;;;16.40;55.20;;;;;;5051246;28;20203;-58
2022/01/24 06:28:37;;;;;;;4.13;3.83;;;16.40;55.30;;;;;;5051385;28;20167;-58
2022/01/24 06:31:02;;;;;;;4.47;4.07;;;16.40;55.90;;;;;;5051584;28;20610;-58
2022/01/24 06:33:28;;;;;;;3.95;3.65;;;16.40;55.30;;;;;;5050985;28;20638;-58
2022/01/24 06:35:56;;;;;;;5.00;4.60;;;16.30;55.30;;;;;;5051771;28;20275;-59
2022/01/24 06:38:22;;;;;;;4.50;4.20;;;16.40;55.30;;;;;;5051457;28;20526;-58
2022/01/24 06:40:47;;;;;;;4.05;3.75;;;16.40;55.20;;;;;;5050783;28;20723;-59
2022/01/24 06:43:13;;;;;;;4.20;3.88;;;16.30;55.20;;;;;;5051472;28;20182;-58
2022/01/24 06:45:38;;;;;;;4.22;3.92;;;16.40;55.20;;;;;;5051260;28;20171;-58
2022/01/24 06:48:04;;;;;;;4.43;4.13;;;16.30;55.30;;;;;;5050777;28;20186;-59
2022/01/24 06:50:29;;;;;;;4.30;3.90;;;16.30;55.20;;;;;;5051383;28;20662;-58
2022/01/24 06:52:55;;;;;;;4.10;3.80;;;16.30;55.30;;;;;;5051571;28;20202;-59
2022/01/24 06:55:20;;;;;;;3.80;3.50;;;16.30;55.30;;;;;;5050611;28;20269;-58
2022/01/24 06:57:46;;;;;;;4.03;3.72;;;16.30;55.20;;;;;;5051473;28;20260;-58
2022/01/24 07:00:11;;;;;;;4.40;4.10;;;16.30;55.20;;;;;;5051327;28;20317;-59
2022/01/24 07:02:37;;;;;;;3.85;3.55;;;16.30;55.30;;;;;;5050580;28;20634;-58
2022/01/24 07:05:03;;;;;;;4.18;3.88;;;16.30;55.30;;;;;;5051535;28;20601;-59
2022/01/24 07:07:30;;;;;;;3.92;3.63;;;16.30;55.20;;;;;;5051094;28;20261;-58
2022/01/24 07:09:55;;;;;;;3.63;3.42;;;16.30;55.20;;;;;;5050528;28;20179;-58
2022/01/24 07:12:22;;;;;;;4.35;4.00;;;16.40;55.10;;;;;;5050895;28;20546;-59
2022/01/24 07:14:48;;;;;;;3.88;3.58;;;16.40;55.00;;;;;;5051007;28;20245;-60
2022/01/24 07:17:29;;;;;;;3.88;3.58;;;16.40;55.00;;;;;;5050616;28;20251;-59
2022/01/24 07:19:54;;;;;;;4.32;4.03;;;16.40;55.00;;;;;;5051338;28;20182;-59
2022/01/24 07:22:20;;;;;;;3.78;3.47;;;16.40;55.00;;;;;;5050347;28;20229;-59
2022/01/24 07:24:45;;;;;;;3.80;3.50;;;16.40;54.90;;;;;;5051046;28;20167;-59
2022/01/24 07:27:11;;;;;;;4.05;3.72;;;16.40;54.90;;;;;;5051042;28;20182;-59
2022/01/24 07:29:36;;;;;;;3.67;3.38;;;16.40;54.90;;;;;;5052829;28;20171;-59
2022/01/24 07:32:02;;;;;;;3.85;3.55;;;16.30;54.90;;;;;;5054573;28;20592;-59
2022/01/24 07:34:28;;;;;;;3.78;3.47;;;16.40;55.00;;;;;;5054398;28;20186;-59
2022/01/24 07:36:55;;;;;;;3.30;3.00;;;16.40;55.00;;;;;;5053758;28;20225;-60
2022/01/24 07:39:21;;;;;;;3.45;3.15;;;16.50;55.10;;;;;;5054338;28;20207;-59
2022/01/24 07:41:47;;;;;;;3.42;3.13;;;16.50;55.30;;;;;;5054204;28;20241;-59
2022/01/24 07:44:14;;;;;;;3.20;3.00;;;16.60;55.20;;;;;;5053623;28;20532;-59
2022/01/24 07:46:39;;;;;;;3.42;3.13;;;16.70;55.10;;;;;;5053790;28;20277;-60
2022/01/24 07:49:07;;;;;;;3.03;2.80;;;16.90;54.80;;;;;;5063162;28;20167;-60
2022/01/24 07:51:33;;;;;;;3.17;2.88;;;17.10;54.60;;;;;;5066383;28;20222;-59
2022/01/24 07:53:58;;;;;;;2.88;2.67;;;17.30;54.30;;;;;;5060997;28;20225;-60
2022/01/24 07:56:24;;;;;;;2.90;2.70;;;17.50;54.10;;;;;;5072066;28;20182;-59
2022/01/24 07:58:49;;;;;;;2.28;2.17;;;17.60;53.70;;;;;;5071892;28;20597;-59
2022/01/24 08:01:15;;;;;;;2.42;2.30;;;17.90;54.10;;;;;;5040794;28;20216;-61
2022/01/24 08:03:41;;;;;;;5.45;2.45;;;18.00;53.10;;;;;;5033930;28;20210;-62
2022/01/24 08:06:06;;;;;;;4.40;2.85;;;18.20;53.20;;;;;;5045179;28;20258;-61
2022/01/24 08:08:32;;;;;;;3.00;2.30;;;18.30;53.30;;;;;;5053088;28;20168;-61
2022/01/24 08:10:57;;;;;;;2.88;2.55;;;18.50;53.10;;;;;;5053363;28;20267;-60
2022/01/24 08:13:23;;;;;;;4.18;2.45;;;18.50;52.80;;;;;;5049976;28;20167;-62
2022/01/24 08:15:48;;;;;;;2.80;2.60;;;18.50;52.80;;;;;;5053529;28;20163;-62
2022/01/24 08:18:14;;;;;;;2.60;2.40;;;18.50;53.00;;;;;;5053605;28;20178;-62
2022/01/24 08:20:41;;;;;;;3.53;2.60;;;18.40;53.20;;;;;;5052880;28;20233;-61
2022/01/24 08:23:08;;;;;;;2.67;2.33;;;18.40;53.10;;;;;;5053797;28;20188;-61
2022/01/24 08:25:33;;;;;;;3.05;2.30;;;18.40;53.20;;;;;;5053789;28;20183;-62
2022/01/24 08:27:59;;;;;;;2.63;2.00;;;18.40;53.40;;;;;;5053378;28;20175;-62
2022/01/24 08:30:25;;;;;;;2.30;2.10;;;18.50;53.30;;;;;;5053525;28;20203;-66
2022/01/24 08:32:50;;;;;;;2.55;2.22;;;18.50;53.40;;;;;;5054409;28;20234;-66
2022/01/24 08:35:20;;;;;;;2.25;1.80;;;18.50;53.50;;;;;;5061441;28;20190;-67
2022/01/24 08:37:46;;;;;;;3.47;2.60;;;18.50;53.50;;;;;;5069257;28;20174;-66
2022/01/24 08:40:19;;;;;;;2.80;2.47;;;18.50;53.50;;;;;;5071621;28;20171;-67
2022/01/24 08:42:54;;;;;;;2.60;2.40;;;18.40;53.40;;;;;;5053546;28;20294;-67
2022/01/24 08:48:07;;;;;;;2.67;2.10;;;18.40;53.80;;;;;;5052884;28;20197;-66
2022/01/24 08:50:32;;;;;;;2.90;2.58;;;18.40;53.70;;;;;;5068096;28;20664;-66
2022/01/24 08:53:03;;;;;;;3.55;2.60;;;18.30;53.90;;;;;;5059525;28;20183;-66
2022/01/24 08:55:29;;;;;;;2.63;2.42;;;18.30;54.00;;;;;;5052539;28;20171;-66
2022/01/24 08:57:57;;;;;;;3.53;3.03;;;18.40;54.00;;;;;;5053088;28;20626;-65
2022/01/24 09:00:23;;;;;;;3.60;2.30;;;18.40;53.80;;;;;;5052791;28;20175;-66
2022/01/24 09:02:49;;;;;;;3.08;2.45;;;18.40;53.60;;;;;;5052186;28;20183;-66
2022/01/24 09:05:15;;;;;;;2.90;2.70;;;18.50;53.70;;;;;;5053217;28;20198;-66
2022/01/24 09:07:40;;;;;;;3.53;2.40;;;18.50;53.70;;;;;;5068465;28;20589;-66
2022/01/24 09:10:07;;;;;;;3.60;2.45;;;18.40;53.60;;;;;;5072454;28;20162;-65
2022/01/24 09:12:32;;;;;;;2.22;2.00;;;18.40;53.60;;;;;;5072613;28;20236;-65
2022/01/24 09:14:58;;;;;;;4.28;2.67;;;18.20;53.80;;;;;;5072329;28;20178;-65
2022/01/24 09:17:23;;;;;;;2.85;2.45;;;18.10;54.00;;;;;;5072800;28;20201;-65
2022/01/24 09:19:49;;;;;;;3.40;2.50;;;18.00;54.20;;;;;;5072947;28;20171;-65
2022/01/24 09:22:14;;;;;;;2.63;2.25;;;18.00;54.40;;;;;;5071895;28;20218;-64
2022/01/24 09:24:40;;;;;;;2.70;2.50;;;18.00;54.20;;;;;;5072239;28;20661;-64
2022/01/24 09:27:06;;;;;;;2.92;2.20;;;18.00;54.40;;;;;;5072762;28;20220;-64
2022/01/24 09:29:32;;;;;;;2.97;2.50;;;18.10;54.30;;;;;;5071656;28;20171;-65
2022/01/24 09:31:57;;;;;;;2.75;2.22;;;18.00;54.20;;;;;;5072517;28;20177;-65
2022/01/24 09:34:23;;;;;;;3.08;2.42;;;18.00;54.20;;;;;;5072089;28;20198;-66
2022/01/24 09:36:49;;;;;;;2.53;2.33;;;18.10;54.20;;;;;;5071750;28;20265;-66
2022/01/24 09:39:15;;;;;;;3.25;2.50;;;18.10;54.30;;;;;;5072586;28;20591;-66
2022/01/24 09:41:41;;;;;;;2.50;2.30;;;18.10;54.20;;;;;;5057057;28;20218;-65
2022/01/24 09:44:06;;;;;;;2.72;2.20;;;18.10;54.10;;;;;;5051823;28;20175;-65
2022/01/24 09:46:44;;;;;;;3.33;3.03;;;18.10;54.10;;;;;;5051918;28;20198;-66
2022/01/24 09:49:10;;;;;;;2.60;2.40;;;18.20;54.00;;;;;;5051485;28;20182;-65
2022/01/24 09:51:37;;;;;;;2.30;2.10;;;18.20;53.90;;;;;;5050417;28;20234;-65
2022/01/24 09:54:04;;;;;;;2.42;2.15;;;18.30;53.90;;;;;;5052293;28;20182;-65
2022/01/24 09:56:29;;;;;;;2.33;2.13;;;18.20;53.90;;;;;;5051977;28;20186;-65
2022/01/24 09:58:55;;;;;;;2.53;2.17;;;18.20;53.80;;;;;;5051397;28;20171;-66
2022/01/24 10:01:20;;;;;;;3.47;2.20;;;18.20;53.90;;;;;;5051964;28;20203;-65
2022/01/24 10:04:04;;;;;;;2.53;2.25;;;18.10;54.00;;;;;;5051926;28;20502;-65
2022/01/24 10:06:59;;;;;;;2.40;2.13;;;18.00;54.10;;;;;;5051779;28;20187;-66
2022/01/24 10:09:33;;;;;;;2.67;2.35;;;18.00;54.30;;;;;;5051869;28;20185;-64
2022/01/24 10:12:15;;;;;;;2.20;2.08;;;18.00;54.20;;;;;;5051601;28;20171;-65
2022/01/24 10:17:27;;;;;;;2.63;1.95;;;18.00;54.20;;;;;;5051290;28;20221;-65
2022/01/24 10:19:52;;;;;;;2.30;2.10;;;18.00;54.30;;;;;;5050711;28;20179;-64
2022/01/24 10:22:20;;;;;;;2.38;2.17;;;18.00;54.20;;;;;;5051669;28;20210;-65
2022/01/24 10:24:48;;;;;;;2.22;2.03;;;18.00;54.20;;;;;;5051626;28;20262;-63
2022/01/24 10:27:18;;;;;;;1.85;1.75;;;18.10;54.20;;;;;;5050933;28;20191;-64
2022/01/24 10:29:58;;;;;;;2.15;2.00;;;18.10;54.10;;;;;;5051483;28;20279;-64
2022/01/24 10:32:27;;;;;;;2.55;2.35;;;18.10;54.00;;;;;;5050665;28;20218;-66
2022/01/24 10:34:52;;;;;;;2.88;2.47;;;18.00;53.70;;;;;;5051460;28;20269;-66
2022/01/24 10:37:21;;;;;;;2.53;2.28;;;18.00;53.80;;;;;;5051518;28;20614;-66
2022/01/24 10:39:56;;;;;;;2.70;2.28;;;17.90;53.70;;;;;;5050461;28;20185;-66
2022/01/24 10:44:56;;;;;;;2.53;2.33;;;17.90;53.90;;;;;;5031576;28;20180;-65
2022/01/24 10:47:23;;;;;;;2.50;2.25;;;17.80;54.00;;;;;;5029611;28;20226;-65
2022/01/24 10:49:50;;;;;;;2.17;1.80;;;17.90;54.10;;;;;;5031758;28;20175;-65
2022/01/24 10:52:26;;;;;;;4.28;2.15;;;17.80;54.00;;;;;;5031342;28;20228;-66
2022/01/24 10:55:08;;;;;;;1.98;1.88;;;17.90;54.00;;;;;;5030992;28;20262;-65
2022/01/24 10:57:34;;;;;;;3.90;2.08;;;17.90;53.90;;;;;;5031108;28;20180;-66
2022/01/24 11:00:05;;;;;;;1.83;1.73;;;17.90;53.90;;;;;;5031737;28;20172;-65
2022/01/24 11:02:41;;;;;;;2.60;2.40;;;17.90;53.90;;;;;;5031143;28;20581;-66
2022/01/24 11:05:19;;;;;;;1.80;1.70;;;17.90;53.80;;;;;;5035339;28;20179;-65
2022/01/24 11:07:59;;;;;;;1.92;1.77;;;17.90;53.90;;;;;;5034405;28;20182;-65
2022/01/24 11:10:26;;;;;;;1.92;1.83;;;17.90;54.00;;;;;;5035103;28;20179;-65
2022/01/24 11:12:52;;;;;;;2.28;2.17;;;17.80;54.00;;;;;;5035206;28;20234;-64
2022/01/24 11:15:21;;;;;;;2.38;2.05;;;17.80;54.10;;;;;;5034510;28;20180;-64
2022/01/24 11:17:47;;;;;;;2.40;1.90;;;17.80;54.20;;;;;;5035007;28;20171;-65
2022/01/24 11:20:16;;;;;;;2.55;1.90;;;17.80;54.20;;;;;;5035087;28;20262;-64
2022/01/24 11:22:44;;;;;;;2.20;2.00;;;17.80;54.10;;;;;;5033889;28;20609;-65
2022/01/24 11:25:10;;;;;;;2.58;1.73;;;17.90;54.20;;;;;;5034096;28;20191;-65
2022/01/24 11:27:39;;;;;;;2.03;1.92;;;17.90;54.10;;;;;;5034772;28;20190;-65
2022/01/24 11:30:22;;;;;;;1.83;1.70;;;17.90;54.00;;;;;;5034278;28;20271;-66
2022/01/24 11:32:55;;;;;;;2.65;1.73;;;17.90;53.90;;;;;;5034634;28;20249;-66
2022/01/24 11:35:39;;;;;;;2.92;1.98;;;17.90;54.00;;;;;;5033541;28;20288;-67
2022/01/24 11:38:24;;;;;;;2.10;1.90;;;17.80;54.00;;;;;;5034858;28;20586;-67
2022/01/24 11:40:53;;;;;;;2.22;1.67;;;17.80;54.00;;;;;;5046745;28;20616;-67
2022/01/24 11:43:36;;;;;;;2.85;2.05;;;17.80;54.20;;;;;;5053681;28;20182;-66
2022/01/24 11:46:42;;;;;;;1.92;1.83;;;17.80;54.20;;;;;;5054570;28;20190;-66
2022/01/24 11:49:10;;;;;;;2.25;1.55;;;17.70;54.10;;;;;;5053745;28;20198;-66
2022/01/24 11:51:37;;;;;;;2.72;2.53;;;17.80;54.10;;;;;;5053281;28;20238;-62
2022/01/24 11:54:03;;;;;;;1.80;1.70;;;17.80;54.00;;;;;;5054541;28;20564;-61
2022/01/24 11:56:31;;;;;;;1.77;1.67;;;17.80;54.10;;;;;;5054122;28;20270;-63
2022/01/24 11:59:19;;;;;;;2.78;2.00;;;17.90;54.10;;;;;;5053239;28;20657;-62
2022/01/24 12:01:46;;;;;;;3.13;1.88;;;17.90;54.00;;;;;;5053641;28;20693;-62
2022/01/24 12:04:11;;;;;;;1.70;1.60;;;17.90;54.00;;;;;;5053336;28;20179;-62
2022/01/24 12:07:14;;;;;;;3.80;1.88;;;17.90;54.00;;;;;;5053937;28;20181;-61
2022/01/24 12:09:40;;;;;;;1.75;1.65;;;17.90;54.10;;;;;;5053795;28;20187;-62
2022/01/24 12:12:50;;;;;;;1.98;1.30;;;17.80;54.10;;;;;;5053266;28;20525;-62
2022/01/24 12:15:38;;;;;;;1.85;1.42;;;17.80;54.20;;;;;;5053068;28;20174;-63
2022/01/24 12:18:22;;;;;;;1.70;1.58;;;17.80;54.20;;;;;;5053254;28;20175;-61
2022/01/24 12:20:50;;;;;;;1.83;1.38;;;17.80;54.30;;;;;;5054018;28;20267;-62
2022/01/24 12:23:19;;;;;;;1.80;1.70;;;17.90;54.30;;;;;;5054121;28;20209;-62
2022/01/24 12:25:56;;;;;;;3.90;1.75;;;17.90;54.30;;;;;;5052966;28;20254;-60
2022/01/24 12:28:26;;;;;;;1.70;1.60;;;17.90;54.40;;;;;;5053680;28;20178;-65
2022/01/24 12:31:02;;;;;;;3.13;1.85;;;17.90;54.40;;;;;;5053457;28;20167;-65
2022/01/24 12:33:45;;;;;;;2.70;1.88;;;17.80;54.50;;;;;;5052585;28;20179;-64
2022/01/24 12:36:13;;;;;;;2.08;1.70;;;17.90;54.50;;;;;;5052412;28;20183;-64
2022/01/24 12:38:52;;;;;;;1.83;1.60;;;17.80;54.50;;;;;;5053311;28;20247;-64
2022/01/24 12:41:20;;;;;;;2.92;1.45;;;17.90;54.40;;;;;;5064920;28;20205;-64
2022/01/24 12:46:25;;;;;;;2.03;1.63;;;18.10;54.20;;;;;;5072852;28;20261;-64
2022/01/24 12:48:51;;;;;;;2.05;1.20;;;18.10;54.00;;;;;;5073343;28;20571;-64
2022/01/24 12:51:21;;;;;;;2.20;1.40;;;18.20;53.80;;;;;;5073201;28;20288;-63
2022/01/24 12:53:46;;;;;;;2.08;1.45;;;18.40;53.70;;;;;;5065752;28;20182;-64
2022/01/24 12:56:13;;;;;;;2.28;1.27;;;18.50;53.50;;;;;;5053065;28;20545;-63
2022/01/24 12:58:41;;;;;;;6.70;1.55;;;18.60;53.30;;;;;;5052859;28;20559;-65
2022/01/24 13:01:26;;;;;;;1.60;1.50;;;18.70;53.10;;;;;;5052537;28;20297;-64
2022/01/24 13:04:03;;;;;;;2.80;1.70;;;18.80;52.80;;;;;;5053310;28;20189;-63
2022/01/24 13:06:31;;;;;;;1.58;1.27;;;18.90;52.60;;;;;;5052768;28;20179;-64
2022/01/24 13:09:14;;;;;;;2.53;1.30;;;19.00;52.60;;;;;;5052152;28;20566;-63
2022/01/24 13:11:47;;;;;;;2.70;1.40;;;19.00;52.50;;;;;;5052937;28;20204;-61
2022/01/24 13:14:37;;;;;;;2.67;1.50;;;18.90;52.50;;;;;;5052287;28;20313;-63
2022/01/24 13:22:47;;;;;;;2.25;1.30;;;19.10;52.30;;;;;;5051657;28;20579;-64
2022/01/24 13:25:20;;;;;;;1.30;1.20;;;19.20;52.20;;;;;;5052572;28;20171;-63
2022/01/24 13:27:48;;;;;;;1.30;1.20;;;19.20;52.20;;;;;;5052817;28;20217;-63
2022/01/24 13:30:24;;;;;;;1.30;1.20;;;19.20;52.20;;;;;;5052100;28;20209;-64
2022/01/24 13:32:59;;;;;;;2.30;1.05;;;19.20;52.00;;;;;;5052747;28;20261;-64
2022/01/24 13:35:33;;;;;;;1.45;1.23;;;19.20;52.10;;;;;;5051638;28;20242;-64
2022/01/24 13:38:09;;;;;;;1.65;1.23;;;19.10;52.20;;;;;;5052086;28;20661;-64
2022/01/24 13:43:34;;;;;;;1.90;1.80;;;18.90;52.40;;;;;;5071569;28;20209;-61
2022/01/24 13:46:09;;;;;;;2.28;1.63;;;18.90;52.50;;;;;;5072332;28;20190;-64
2022/01/24 13:49:01;;;;;;;2.25;2.08;;;18.80;52.40;;;;;;5071701;28;20648;-64
2022/01/24 13:51:42;;;;;;;2.25;1.80;;;18.80;52.50;;;;;;5068437;28;20585;-64
2022/01/24 13:54:17;;;;;;;2.70;1.55;;;18.70;52.70;;;;;;5072239;28;20169;-64
2022/01/24 13:56:50;;;;;;;2.10;1.85;;;18.70;52.90;;;;;;5070972;28;20174;-64
2022/01/24 13:59:17;;;;;;;3.20;1.88;;;18.60;52.90;;;;;;5072273;28;20253;-66
2022/01/24 14:02:02;;;;;;;2.22;1.85;;;18.60;53.30;;;;;;5071844;28;20299;-64
2022/01/24 14:04:40;;;;;;;2.00;1.80;;;18.50;53.40;;;;;;5056263;28;20171;-63
2022/01/24 14:07:41;;;;;;;1.80;1.70;;;18.50;53.30;;;;;;5049988;28;20313;-62
2022/01/24 14:10:11;;;;;;;4.43;2.15;;;18.50;53.60;;;;;;5052220;28;20189;-63
2022/01/24 14:12:48;;;;;;;3.70;1.80;;;18.50;53.50;;;;;;5050693;28;20187;-62
2022/01/24 14:18:07;;;;;;;2.95;1.50;;;18.50;53.50;;;;;;5050933;28;20225;-62
2022/01/24 14:20:32;;;;;;;2.88;1.95;;;18.50;53.30;;;;;;5050223;28;20167;-62
2022/01/24 14:22:58;;;;;;;2.30;2.10;;;18.50;53.40;;;;;;5051923;28;20171;-61
2022/01/24 14:25:26;;;;;;;3.15;2.13;;;18.40;53.20;;;;;;5050993;28;20179;-62
2022/01/24 14:27:56;;;;;;;2.75;2.10;;;18.40;53.10;;;;;;5051720;28;20179;-63
2022/01/24 14:30:31;;;;;;;2.90;1.90;;;18.40;53.10;;;;;;5051746;28;20258;-63
2022/01/24 14:33:19;;;;;;;3.35;2.00;;;18.40;53.20;;;;;;5051488;28;20170;-63
2022/01/24 14:36:01;;;;;;;3.35;1.95;;;18.40;53.20;;;;;;5051518;28;20179;-63
2022/01/24 14:38:32;;;;;;;2.08;1.88;;;18.30;53.20;;;;;;5053647;28;20178;-63
2022/01/24 14:41:02;;;;;;;3.08;2.20;;;18.30;53.30;;;;;;5064278;28;20612;-62
2022/01/24 14:46:14;;;;;;;2.63;1.70;;;18.40;53.20;;;;;;5074837;28;20174;-62
2022/01/24 14:48:51;;;;;;;2.85;2.22;;;18.40;53.10;;;;;;5075414;28;20175;-62
2022/01/24 14:51:22;;;;;;;1.95;1.85;;;18.40;53.00;;;;;;5075349;28;20233;-62
2022/01/24 14:53:49;;;;;;;2.42;1.98;;;18.40;53.00;;;;;;5074576;28;20216;-62